sensor_id;sensor_type;location;lat;lon;timestamp;P1;durP1;ratioP1;P2;durP2;ratioP2
69047;SDS011;56119;50.118;8.642;2023-02-28T00:00:01;6.10;;;4.47;;
69047;SDS011;56119;50.118;8.642;2023-02-28T00:02:34;6.47;;;4.70;;
69047;SDS011;56119;50.118;8.642;2023-02-28T00:05:00;5.80;;;4.60;;
69047;SDS011;56119;50.118;8.642;2023-02-28T00:07:28;5.00;;;4.17;;
69047;SDS011;56119;50.118;8.642;2023-02-28T00:09:54;6.87;;;4.73;;
69047;SDS011;56119;50.118;8.642;2023-02-28T00:12:20;6.73;;;4.60;;
69047;SDS011;56119;50.118;8.642;2023-02-28T00:14:46;6.80;;;4.40;;
69047;SDS011;56119;50.118;8.642;2023-02-28T00:17:12;7.17;;;5.03;;
69047;SDS011;56119;50.118;8.642;2023-02-28T00:19:38;5.67;;;4.80;;
69047;SDS011;56119;50.118;8.642;2023-02-28T00:22:04;6.13;;;5.03;;
69047;SDS011;56119;50.118;8.642;2023-02-28T00:24:30;6.00;;;4.83;;
69047;SDS011;56119;50.118;8.642;2023-02-28T00:26:56;6.47;;;5.23;;
69047;SDS011;56119;50.118;8.642;2023-02-28T00:29:22;7.57;;;5.30;;
69047;SDS011;56119;50.118;8.642;2023-02-28T00:31:48;6.47;;;5.27;;
69047;SDS011;56119;50.118;8.642;2023-02-28T00:34:14;6.87;;;5.20;;
69047;SDS011;56119;50.118;8.642;2023-02-28T00:36:40;5.17;;;4.67;;
69047;SDS011;56119;50.118;8.642;2023-02-28T00:39:10;6.70;;;5.30;;
69047;SDS011;56119;50.118;8.642;2023-02-28T00:41:36;6.67;;;5.50;;
69047;SDS011;56119;50.118;8.642;2023-02-28T00:44:02;7.53;;;5.10;;
69047;SDS011;56119;50.118;8.642;2023-02-28T00:46:28;6.23;;;4.83;;
69047;SDS011;56119;50.118;8.642;2023-02-28T00:48:54;7.17;;;5.03;;
69047;SDS011;56119;50.118;8.642;2023-02-28T00:51:20;8.60;;;5.13;;
69047;SDS011;56119;50.118;8.642;2023-02-28T00:53:46;6.17;;;5.23;;
69047;SDS011;56119;50.118;8.642;2023-02-28T00:56:12;8.33;;;5.63;;
69047;SDS011;56119;50.118;8.642;2023-02-28T00:58:38;6.90;;;5.50;;
69047;SDS011;56119;50.118;8.642;2023-02-28T01:01:05;8.03;;;5.67;;
69047;SDS011;56119;50.118;8.642;2023-02-28T01:03:31;6.23;;;5.17;;
69047;SDS011;56119;50.118;8.642;2023-02-28T01:05:57;6.27;;;5.33;;
69047;SDS011;56119;50.118;8.642;2023-02-28T01:08:23;7.57;;;5.17;;
69047;SDS011;56119;50.118;8.642;2023-02-28T01:10:49;8.20;;;5.87;;
69047;SDS011;56119;50.118;8.642;2023-02-28T01:13:15;6.23;;;5.13;;
69047;SDS011;56119;50.118;8.642;2023-02-28T01:15:43;6.90;;;6.20;;
69047;SDS011;56119;50.118;8.642;2023-02-28T01:18:09;7.73;;;5.80;;
69047;SDS011;56119;50.118;8.642;2023-02-28T01:20:38;7.40;;;6.10;;
69047;SDS011;56119;50.118;8.642;2023-02-28T01:23:04;8.23;;;5.60;;
69047;SDS011;56119;50.118;8.642;2023-02-28T01:25:30;8.70;;;6.33;;
69047;SDS011;56119;50.118;8.642;2023-02-28T01:27:56;10.60;;;6.23;;
69047;SDS011;56119;50.118;8.642;2023-02-28T01:30:22;7.50;;;6.00;;
69047;SDS011;56119;50.118;8.642;2023-02-28T01:32:48;7.10;;;6.00;;
69047;SDS011;56119;50.118;8.642;2023-02-28T01:35:16;8.13;;;6.43;;
69047;SDS011;56119;50.118;8.642;2023-02-28T01:37:42;9.40;;;5.97;;
69047;SDS011;56119;50.118;8.642;2023-02-28T01:40:08;8.03;;;6.00;;
69047;SDS011;56119;50.118;8.642;2023-02-28T01:42:34;13.30;;;6.37;;
69047;SDS011;56119;50.118;8.642;2023-02-28T01:47:36;7.47;;;5.97;;
69047;SDS011;56119;50.118;8.642;2023-02-28T01:50:06;9.27;;;6.97;;
69047;SDS011;56119;50.118;8.642;2023-02-28T01:52:33;7.93;;;5.90;;
69047;SDS011;56119;50.118;8.642;2023-02-28T01:55:00;8.07;;;6.37;;
69047;SDS011;56119;50.118;8.642;2023-02-28T01:57:29;7.63;;;6.13;;
69047;SDS011;56119;50.118;8.642;2023-02-28T01:59:57;7.10;;;6.40;;
69047;SDS011;56119;50.118;8.642;2023-02-28T02:02:25;7.40;;;6.30;;
69047;SDS011;56119;50.118;8.642;2023-02-28T02:04:55;8.47;;;6.27;;
69047;SDS011;56119;50.118;8.642;2023-02-28T02:07:22;9.70;;;6.87;;
69047;SDS011;56119;50.118;8.642;2023-02-28T02:09:49;9.20;;;6.33;;
69047;SDS011;56119;50.118;8.642;2023-02-28T02:12:19;9.93;;;6.90;;
69047;SDS011;56119;50.118;8.642;2023-02-28T02:14:54;9.70;;;6.53;;
69047;SDS011;56119;50.118;8.642;2023-02-28T02:17:26;9.83;;;6.57;;
69047;SDS011;56119;50.118;8.642;2023-02-28T02:20:16;10.27;;;7.50;;
69047;SDS011;56119;50.118;8.642;2023-02-28T02:25:28;10.30;;;6.93;;
69047;SDS011;56119;50.118;8.642;2023-02-28T02:27:59;9.23;;;7.03;;
69047;SDS011;56119;50.118;8.642;2023-02-28T02:30:41;8.87;;;6.50;;
69047;SDS011;56119;50.118;8.642;2023-02-28T02:33:13;7.77;;;6.80;;
69047;SDS011;56119;50.118;8.642;2023-02-28T02:35:52;8.77;;;6.70;;
69047;SDS011;56119;50.118;8.642;2023-02-28T02:43:40;8.87;;;6.53;;
69047;SDS011;56119;50.118;8.642;2023-02-28T02:46:12;9.70;;;5.70;;
69047;SDS011;56119;50.118;8.642;2023-02-28T02:48:40;9.20;;;6.40;;
69047;SDS011;56119;50.118;8.642;2023-02-28T02:51:10;6.97;;;5.70;;
69047;SDS011;56119;50.118;8.642;2023-02-28T02:53:44;7.40;;;5.93;;
69047;SDS011;56119;50.118;8.642;2023-02-28T02:56:11;8.00;;;6.30;;
69047;SDS011;56119;50.118;8.642;2023-02-28T02:58:38;9.23;;;6.10;;
69047;SDS011;56119;50.118;8.642;2023-02-28T03:01:07;7.60;;;6.10;;
69047;SDS011;56119;50.118;8.642;2023-02-28T03:03:34;9.63;;;6.57;;
69047;SDS011;56119;50.118;8.642;2023-02-28T03:06:01;8.03;;;5.87;;
69047;SDS011;56119;50.118;8.642;2023-02-28T03:08:28;7.67;;;6.20;;
69047;SDS011;56119;50.118;8.642;2023-02-28T03:11:02;8.20;;;6.03;;
69047;SDS011;56119;50.118;8.642;2023-02-28T03:18:36;8.13;;;6.93;;
69047;SDS011;56119;50.118;8.642;2023-02-28T03:21:12;10.27;;;6.70;;
69047;SDS011;56119;50.118;8.642;2023-02-28T03:23:45;7.67;;;5.87;;
69047;SDS011;56119;50.118;8.642;2023-02-28T03:26:17;7.30;;;5.80;;
69047;SDS011;56119;50.118;8.642;2023-02-28T03:31:33;8.13;;;5.87;;
69047;SDS011;56119;50.118;8.642;2023-02-28T03:34:02;8.33;;;6.50;;
69047;SDS011;56119;50.118;8.642;2023-02-28T03:36:30;9.00;;;6.00;;
69047;SDS011;56119;50.118;8.642;2023-02-28T03:38:58;7.27;;;6.17;;
69047;SDS011;56119;50.118;8.642;2023-02-28T03:41:48;7.67;;;5.77;;
69047;SDS011;56119;50.118;8.642;2023-02-28T03:44:21;9.03;;;6.57;;
69047;SDS011;56119;50.118;8.642;2023-02-28T03:46:51;7.53;;;6.10;;
69047;SDS011;56119;50.118;8.642;2023-02-28T03:49:20;9.73;;;6.30;;
69047;SDS011;56119;50.118;8.642;2023-02-28T03:51:48;10.63;;;6.80;;
69047;SDS011;56119;50.118;8.642;2023-02-28T03:54:17;7.53;;;5.83;;
69047;SDS011;56119;50.118;8.642;2023-02-28T03:56:47;9.07;;;6.30;;
69047;SDS011;56119;50.118;8.642;2023-02-28T03:59:15;9.10;;;6.20;;
69047;SDS011;56119;50.118;8.642;2023-02-28T04:01:44;7.63;;;5.97;;
69047;SDS011;56119;50.118;8.642;2023-02-28T04:04:11;7.63;;;6.47;;
69047;SDS011;56119;50.118;8.642;2023-02-28T04:06:37;10.30;;;6.30;;
69047;SDS011;56119;50.118;8.642;2023-02-28T04:09:05;8.20;;;6.27;;
69047;SDS011;56119;50.118;8.642;2023-02-28T04:11:35;9.57;;;6.30;;
69047;SDS011;56119;50.118;8.642;2023-02-28T04:14:02;8.47;;;6.33;;
69047;SDS011;56119;50.118;8.642;2023-02-28T04:16:28;7.80;;;6.37;;
69047;SDS011;56119;50.118;8.642;2023-02-28T04:18:54;11.70;;;6.80;;
69047;SDS011;56119;50.118;8.642;2023-02-28T04:21:27;7.43;;;6.00;;
69047;SDS011;56119;50.118;8.642;2023-02-28T04:23:53;10.77;;;6.60;;
69047;SDS011;56119;50.118;8.642;2023-02-28T04:26:19;9.40;;;6.93;;
69047;SDS011;56119;50.118;8.642;2023-02-28T04:28:45;10.53;;;6.40;;
69047;SDS011;56119;50.118;8.642;2023-02-28T04:31:11;9.83;;;6.70;;
69047;SDS011;56119;50.118;8.642;2023-02-28T04:33:37;12.00;;;7.10;;
69047;SDS011;56119;50.118;8.642;2023-02-28T04:36:04;8.53;;;6.70;;
69047;SDS011;56119;50.118;8.642;2023-02-28T04:38:32;8.20;;;6.97;;
69047;SDS011;56119;50.118;8.642;2023-02-28T04:40:59;8.67;;;6.93;;
69047;SDS011;56119;50.118;8.642;2023-02-28T04:43:25;8.70;;;6.57;;
69047;SDS011;56119;50.118;8.642;2023-02-28T04:45:51;10.27;;;6.83;;
69047;SDS011;56119;50.118;8.642;2023-02-28T04:48:17;10.63;;;7.00;;
69047;SDS011;56119;50.118;8.642;2023-02-28T04:50:43;11.50;;;6.33;;
69047;SDS011;56119;50.118;8.642;2023-02-28T04:53:09;9.70;;;6.10;;
69047;SDS011;56119;50.118;8.642;2023-02-28T04:55:35;10.30;;;6.37;;
69047;SDS011;56119;50.118;8.642;2023-02-28T04:58:01;9.40;;;6.97;;
69047;SDS011;56119;50.118;8.642;2023-02-28T05:00:27;9.63;;;7.13;;
69047;SDS011;56119;50.118;8.642;2023-02-28T05:02:53;7.90;;;6.53;;
69047;SDS011;56119;50.118;8.642;2023-02-28T05:05:19;11.10;;;7.00;;
69047;SDS011;56119;50.118;8.642;2023-02-28T05:07:45;8.23;;;6.53;;
69047;SDS011;56119;50.118;8.642;2023-02-28T05:10:11;8.60;;;6.23;;
69047;SDS011;56119;50.118;8.642;2023-02-28T05:12:37;11.13;;;6.53;;
69047;SDS011;56119;50.118;8.642;2023-02-28T05:15:04;8.87;;;6.50;;
69047;SDS011;56119;50.118;8.642;2023-02-28T05:17:30;8.47;;;6.07;;
69047;SDS011;56119;50.118;8.642;2023-02-28T05:19:56;7.33;;;6.27;;
69047;SDS011;56119;50.118;8.642;2023-02-28T05:22:22;10.17;;;5.67;;
69047;SDS011;56119;50.118;8.642;2023-02-28T05:24:48;7.53;;;5.57;;
69047;SDS011;56119;50.118;8.642;2023-02-28T05:27:14;7.53;;;5.53;;
69047;SDS011;56119;50.118;8.642;2023-02-28T05:29:40;6.33;;;5.37;;
69047;SDS011;56119;50.118;8.642;2023-02-28T05:32:09;7.93;;;5.40;;
69047;SDS011;56119;50.118;8.642;2023-02-28T05:34:36;7.80;;;5.87;;
69047;SDS011;56119;50.118;8.642;2023-02-28T05:37:02;7.93;;;5.47;;
69047;SDS011;56119;50.118;8.642;2023-02-28T05:39:28;7.67;;;5.20;;
69047;SDS011;56119;50.118;8.642;2023-02-28T05:41:54;8.80;;;5.37;;
69047;SDS011;56119;50.118;8.642;2023-02-28T05:44:20;12.63;;;6.33;;
69047;SDS011;56119;50.118;8.642;2023-02-28T05:46:46;9.83;;;5.80;;
69047;SDS011;56119;50.118;8.642;2023-02-28T05:49:12;8.03;;;5.57;;
69047;SDS011;56119;50.118;8.642;2023-02-28T05:51:38;7.40;;;4.60;;
69047;SDS011;56119;50.118;8.642;2023-02-28T05:54:05;8.10;;;4.90;;
69047;SDS011;56119;50.118;8.642;2023-02-28T05:56:31;6.80;;;4.90;;
69047;SDS011;56119;50.118;8.642;2023-02-28T05:58:59;7.10;;;4.83;;
69047;SDS011;56119;50.118;8.642;2023-02-28T06:01:33;7.93;;;5.40;;
69047;SDS011;56119;50.118;8.642;2023-02-28T06:03:59;6.27;;;4.97;;
69047;SDS011;56119;50.118;8.642;2023-02-28T06:06:26;7.57;;;5.60;;
69047;SDS011;56119;50.118;8.642;2023-02-28T06:08:52;7.77;;;5.23;;
69047;SDS011;56119;50.118;8.642;2023-02-28T06:11:18;5.30;;;4.53;;
69047;SDS011;56119;50.118;8.642;2023-02-28T06:13:45;8.17;;;5.30;;
69047;SDS011;56119;50.118;8.642;2023-02-28T06:16:11;7.60;;;4.23;;
69047;SDS011;56119;50.118;8.642;2023-02-28T06:18:37;8.87;;;5.57;;
69047;SDS011;56119;50.118;8.642;2023-02-28T06:21:03;7.50;;;5.17;;
69047;SDS011;56119;50.118;8.642;2023-02-28T06:23:30;7.07;;;5.03;;
69047;SDS011;56119;50.118;8.642;2023-02-28T06:25:56;6.93;;;5.53;;
69047;SDS011;56119;50.118;8.642;2023-02-28T06:28:23;5.97;;;5.03;;
69047;SDS011;56119;50.118;8.642;2023-02-28T06:30:49;6.97;;;4.97;;
69047;SDS011;56119;50.118;8.642;2023-02-28T06:33:15;8.33;;;5.00;;
69047;SDS011;56119;50.118;8.642;2023-02-28T06:35:43;7.53;;;5.63;;
69047;SDS011;56119;50.118;8.642;2023-02-28T06:38:09;8.10;;;5.17;;
69047;SDS011;56119;50.118;8.642;2023-02-28T06:40:35;8.10;;;5.30;;
69047;SDS011;56119;50.118;8.642;2023-02-28T06:43:02;11.47;;;5.60;;
69047;SDS011;56119;50.118;8.642;2023-02-28T06:45:28;6.67;;;5.23;;
69047;SDS011;56119;50.118;8.642;2023-02-28T06:47:54;9.40;;;5.53;;
69047;SDS011;56119;50.118;8.642;2023-02-28T06:50:20;6.67;;;4.90;;
69047;SDS011;56119;50.118;8.642;2023-02-28T06:52:46;7.80;;;5.20;;
69047;SDS011;56119;50.118;8.642;2023-02-28T06:55:12;10.63;;;5.87;;
69047;SDS011;56119;50.118;8.642;2023-02-28T06:57:38;8.13;;;5.13;;
69047;SDS011;56119;50.118;8.642;2023-02-28T07:00:07;7.57;;;4.87;;
69047;SDS011;56119;50.118;8.642;2023-02-28T07:02:37;8.40;;;5.50;;
69047;SDS011;56119;50.118;8.642;2023-02-28T07:05:06;8.70;;;5.63;;
69047;SDS011;56119;50.118;8.642;2023-02-28T07:07:32;8.50;;;5.30;;
69047;SDS011;56119;50.118;8.642;2023-02-28T07:09:58;7.70;;;5.30;;
69047;SDS011;56119;50.118;8.642;2023-02-28T07:12:24;7.23;;;5.27;;
69047;SDS011;56119;50.118;8.642;2023-02-28T07:14:50;9.30;;;5.37;;
69047;SDS011;56119;50.118;8.642;2023-02-28T07:17:16;9.40;;;5.43;;
69047;SDS011;56119;50.118;8.642;2023-02-28T07:19:42;8.03;;;5.87;;
69047;SDS011;56119;50.118;8.642;2023-02-28T07:22:08;8.43;;;5.83;;
69047;SDS011;56119;50.118;8.642;2023-02-28T07:24:34;8.13;;;5.33;;
69047;SDS011;56119;50.118;8.642;2023-02-28T07:27:00;8.80;;;6.20;;
69047;SDS011;56119;50.118;8.642;2023-02-28T07:29:26;7.57;;;5.50;;
69047;SDS011;56119;50.118;8.642;2023-02-28T07:31:52;6.93;;;5.60;;
69047;SDS011;56119;50.118;8.642;2023-02-28T07:34:19;8.43;;;5.33;;
69047;SDS011;56119;50.118;8.642;2023-02-28T07:36:45;7.60;;;5.43;;
69047;SDS011;56119;50.118;8.642;2023-02-28T07:39:11;9.33;;;6.03;;
69047;SDS011;56119;50.118;8.642;2023-02-28T07:41:37;9.03;;;5.70;;
69047;SDS011;56119;50.118;8.642;2023-02-28T07:44:08;8.93;;;5.77;;
69047;SDS011;56119;50.118;8.642;2023-02-28T07:46:34;8.50;;;5.80;;
69047;SDS011;56119;50.118;8.642;2023-02-28T07:49:01;7.60;;;5.93;;
69047;SDS011;56119;50.118;8.642;2023-02-28T07:51:28;12.10;;;6.20;;
69047;SDS011;56119;50.118;8.642;2023-02-28T07:53:54;10.60;;;6.17;;
69047;SDS011;56119;50.118;8.642;2023-02-28T07:56:20;10.17;;;5.93;;
69047;SDS011;56119;50.118;8.642;2023-02-28T07:58:46;8.93;;;6.40;;
69047;SDS011;56119;50.118;8.642;2023-02-28T08:01:12;10.83;;;5.87;;
69047;SDS011;56119;50.118;8.642;2023-02-28T08:03:38;6.63;;;5.67;;
69047;SDS011;56119;50.118;8.642;2023-02-28T08:06:05;8.87;;;6.20;;
69047;SDS011;56119;50.118;8.642;2023-02-28T08:08:31;10.20;;;6.57;;
69047;SDS011;56119;50.118;8.642;2023-02-28T08:10:58;7.73;;;6.07;;
69047;SDS011;56119;50.118;8.642;2023-02-28T08:13:25;7.90;;;5.83;;
69047;SDS011;56119;50.118;8.642;2023-02-28T08:15:52;9.20;;;6.27;;
69047;SDS011;56119;50.118;8.642;2023-02-28T08:18:18;8.20;;;6.10;;
69047;SDS011;56119;50.118;8.642;2023-02-28T08:20:44;8.90;;;5.60;;
69047;SDS011;56119;50.118;8.642;2023-02-28T08:23:10;7.53;;;5.93;;
69047;SDS011;56119;50.118;8.642;2023-02-28T08:25:36;9.33;;;5.10;;
69047;SDS011;56119;50.118;8.642;2023-02-28T08:28:02;7.67;;;5.03;;
69047;SDS011;56119;50.118;8.642;2023-02-28T08:30:28;7.53;;;4.90;;
69047;SDS011;56119;50.118;8.642;2023-02-28T08:32:54;7.53;;;4.43;;
69047;SDS011;56119;50.118;8.642;2023-02-28T08:35:21;7.27;;;4.60;;
69047;SDS011;56119;50.118;8.642;2023-02-28T08:37:48;6.30;;;4.30;;
69047;SDS011;56119;50.118;8.642;2023-02-28T08:40:15;8.10;;;4.40;;
69047;SDS011;56119;50.118;8.642;2023-02-28T08:42:45;7.50;;;4.73;;
69047;SDS011;56119;50.118;8.642;2023-02-28T08:45:12;5.37;;;4.00;;
69047;SDS011;56119;50.118;8.642;2023-02-28T08:47:38;5.73;;;4.50;;
69047;SDS011;56119;50.118;8.642;2023-02-28T08:50:04;5.97;;;4.20;;
69047;SDS011;56119;50.118;8.642;2023-02-28T08:52:30;6.23;;;4.40;;
69047;SDS011;56119;50.118;8.642;2023-02-28T08:54:56;6.63;;;4.47;;
69047;SDS011;56119;50.118;8.642;2023-02-28T08:57:22;6.20;;;4.50;;
69047;SDS011;56119;50.118;8.642;2023-02-28T08:59:50;7.23;;;4.50;;
69047;SDS011;56119;50.118;8.642;2023-02-28T09:02:16;6.40;;;4.40;;
69047;SDS011;56119;50.118;8.642;2023-02-28T09:04:42;6.93;;;4.30;;
69047;SDS011;56119;50.118;8.642;2023-02-28T09:07:10;6.63;;;4.33;;
69047;SDS011;56119;50.118;8.642;2023-02-28T09:09:36;6.00;;;4.20;;
69047;SDS011;56119;50.118;8.642;2023-02-28T09:12:02;5.97;;;4.33;;
69047;SDS011;56119;50.118;8.642;2023-02-28T09:14:28;5.77;;;4.50;;
69047;SDS011;56119;50.118;8.642;2023-02-28T09:16:54;6.30;;;4.10;;
69047;SDS011;56119;50.118;8.642;2023-02-28T09:19:20;6.93;;;4.47;;
69047;SDS011;56119;50.118;8.642;2023-02-28T09:21:47;5.97;;;4.55;;
69047;SDS011;56119;50.118;8.642;2023-02-28T09:24:13;6.47;;;4.80;;
69047;SDS011;56119;50.118;8.642;2023-02-28T09:26:40;6.93;;;4.83;;
69047;SDS011;56119;50.118;8.642;2023-02-28T09:29:06;5.88;;;3.88;;
69047;SDS011;56119;50.118;8.642;2023-02-28T09:31:32;6.18;;;4.50;;
69047;SDS011;56119;50.118;8.642;2023-02-28T09:33:58;6.57;;;4.72;;
69047;SDS011;56119;50.118;8.642;2023-02-28T09:36:25;8.55;;;4.70;;
69047;SDS011;56119;50.118;8.642;2023-02-28T09:38:53;6.80;;;4.43;;
69047;SDS011;56119;50.118;8.642;2023-02-28T09:41:20;6.68;;;4.75;;
69047;SDS011;56119;50.118;8.642;2023-02-28T09:43:48;6.97;;;4.72;;
69047;SDS011;56119;50.118;8.642;2023-02-28T09:48:41;7.22;;;4.65;;
69047;SDS011;56119;50.118;8.642;2023-02-28T09:51:14;6.57;;;4.87;;
69047;SDS011;56119;50.118;8.642;2023-02-28T09:53:41;9.70;;;5.60;;
69047;SDS011;56119;50.118;8.642;2023-02-28T09:56:08;7.07;;;5.13;;
69047;SDS011;56119;50.118;8.642;2023-02-28T09:58:47;6.32;;;4.82;;
69047;SDS011;56119;50.118;8.642;2023-02-28T10:01:19;7.20;;;4.97;;
69047;SDS011;56119;50.118;8.642;2023-02-28T10:03:56;6.53;;;4.53;;
69047;SDS011;56119;50.118;8.642;2023-02-28T10:06:26;7.85;;;5.65;;
69047;SDS011;56119;50.118;8.642;2023-02-28T10:09:00;6.35;;;4.78;;
69047;SDS011;56119;50.118;8.642;2023-02-28T10:11:27;11.38;;;5.18;;
69047;SDS011;56119;50.118;8.642;2023-02-28T10:16:45;7.40;;;5.10;;
69047;SDS011;56119;50.118;8.642;2023-02-28T10:19:14;7.10;;;4.53;;
69047;SDS011;56119;50.118;8.642;2023-02-28T10:21:44;6.97;;;4.63;;
69047;SDS011;56119;50.118;8.642;2023-02-28T10:24:32;7.47;;;4.80;;
69047;SDS011;56119;50.118;8.642;2023-02-28T10:27:01;8.25;;;5.32;;
69047;SDS011;56119;50.118;8.642;2023-02-28T10:29:28;6.47;;;5.03;;
69047;SDS011;56119;50.118;8.642;2023-02-28T10:31:57;8.20;;;4.57;;
69047;SDS011;56119;50.118;8.642;2023-02-28T10:34:25;6.78;;;4.82;;
69047;SDS011;56119;50.118;8.642;2023-02-28T10:36:51;7.05;;;5.15;;
69047;SDS011;56119;50.118;8.642;2023-02-28T10:39:38;6.68;;;4.93;;
69047;SDS011;56119;50.118;8.642;2023-02-28T10:42:04;8.13;;;5.07;;
69047;SDS011;56119;50.118;8.642;2023-02-28T10:44:31;8.40;;;4.88;;
69047;SDS011;56119;50.118;8.642;2023-02-28T10:46:57;6.00;;;4.82;;
69047;SDS011;56119;50.118;8.642;2023-02-28T10:49:24;8.75;;;5.30;;
69047;SDS011;56119;50.118;8.642;2023-02-28T10:51:55;6.15;;;4.50;;
69047;SDS011;56119;50.118;8.642;2023-02-28T10:57:15;5.90;;;4.45;;
69047;SDS011;56119;50.118;8.642;2023-02-28T10:59:41;8.77;;;5.07;;
69047;SDS011;56119;50.118;8.642;2023-02-28T11:05:23;7.03;;;4.18;;
69047;SDS011;56119;50.118;8.642;2023-02-28T11:07:53;8.02;;;4.95;;
69047;SDS011;56119;50.118;8.642;2023-02-28T11:10:19;5.93;;;4.57;;
69047;SDS011;56119;50.118;8.642;2023-02-28T11:12:46;7.22;;;5.00;;
69047;SDS011;56119;50.118;8.642;2023-02-28T11:15:29;8.07;;;4.80;;
69047;SDS011;56119;50.118;8.642;2023-02-28T11:18:06;6.40;;;4.70;;
69047;SDS011;56119;50.118;8.642;2023-02-28T11:20:41;6.35;;;4.40;;
69047;SDS011;56119;50.118;8.642;2023-02-28T11:23:10;7.22;;;5.05;;
69047;SDS011;56119;50.118;8.642;2023-02-28T11:25:38;5.68;;;4.72;;
69047;SDS011;56119;50.118;8.642;2023-02-28T11:28:05;8.10;;;5.60;;
69047;SDS011;56119;50.118;8.642;2023-02-28T11:32:58;8.02;;;4.75;;
69047;SDS011;56119;50.118;8.642;2023-02-28T11:35:32;9.70;;;4.95;;
69047;SDS011;56119;50.118;8.642;2023-02-28T11:37:59;7.20;;;5.07;;
69047;SDS011;56119;50.118;8.642;2023-02-28T11:40:31;8.10;;;5.25;;
69047;SDS011;56119;50.118;8.642;2023-02-28T11:43:08;7.32;;;5.28;;
69047;SDS011;56119;50.118;8.642;2023-02-28T11:45:43;7.38;;;5.78;;
69047;SDS011;56119;50.118;8.642;2023-02-28T11:48:14;8.10;;;5.22;;
69047;SDS011;56119;50.118;8.642;2023-02-28T11:55:59;8.30;;;5.80;;
69047;SDS011;56119;50.118;8.642;2023-02-28T12:03:43;7.03;;;5.45;;
69047;SDS011;56119;50.118;8.642;2023-02-28T12:06:26;8.23;;;5.95;;
69047;SDS011;56119;50.118;8.642;2023-02-28T12:14:19;10.63;;;5.82;;
69047;SDS011;56119;50.118;8.642;2023-02-28T12:21:52;6.90;;;5.90;;
69047;SDS011;56119;50.118;8.642;2023-02-28T12:24:43;9.57;;;5.72;;
69047;SDS011;56119;50.118;8.642;2023-02-28T12:27:13;7.00;;;5.68;;
69047;SDS011;56119;50.118;8.642;2023-02-28T12:32:20;8.43;;;6.13;;
69047;SDS011;56119;50.118;8.642;2023-02-28T12:40:04;8.57;;;6.55;;
69047;SDS011;56119;50.118;8.642;2023-02-28T12:42:33;8.60;;;6.88;;
69047;SDS011;56119;50.118;8.642;2023-02-28T12:45:04;11.82;;;6.95;;
69047;SDS011;56119;50.118;8.642;2023-02-28T12:47:34;7.72;;;6.57;;
69047;SDS011;56119;50.118;8.642;2023-02-28T12:50:02;7.95;;;6.10;;
69047;SDS011;56119;50.118;8.642;2023-02-28T12:53:02;7.50;;;6.07;;
69047;SDS011;56119;50.118;8.642;2023-02-28T12:55:23;9.60;;;6.30;;
69047;SDS011;56119;50.118;8.642;2023-02-28T12:57:58;8.65;;;5.95;;
69047;SDS011;56119;50.118;8.642;2023-02-28T13:00:29;7.40;;;6.22;;
69047;SDS011;56119;50.118;8.642;2023-02-28T13:10:38;9.48;;;6.90;;
69047;SDS011;56119;50.118;8.642;2023-02-28T13:13:05;9.18;;;7.05;;
69047;SDS011;56119;50.118;8.642;2023-02-28T13:15:31;7.63;;;6.50;;
69047;SDS011;56119;50.118;8.642;2023-02-28T13:18:00;7.60;;;6.20;;
69047;SDS011;56119;50.118;8.642;2023-02-28T13:20:36;8.07;;;6.93;;
69047;SDS011;56119;50.118;8.642;2023-02-28T13:23:03;8.10;;;6.60;;
69047;SDS011;56119;50.118;8.642;2023-02-28T13:28:11;8.35;;;6.22;;
69047;SDS011;56119;50.118;8.642;2023-02-28T13:33:36;8.32;;;6.22;;
69047;SDS011;56119;50.118;8.642;2023-02-28T13:38:44;9.73;;;6.50;;
69047;SDS011;56119;50.118;8.642;2023-02-28T13:46:25;8.05;;;6.55;;
69047;SDS011;56119;50.118;8.642;2023-02-28T13:48:52;9.45;;;6.43;;
69047;SDS011;56119;50.118;8.642;2023-02-28T13:51:28;9.95;;;5.72;;
69047;SDS011;56119;50.118;8.642;2023-02-28T13:54:06;11.02;;;7.47;;
69047;SDS011;56119;50.118;8.642;2023-02-28T13:56:44;9.60;;;6.47;;
69047;SDS011;56119;50.118;8.642;2023-02-28T13:59:16;10.20;;;6.50;;
69047;SDS011;56119;50.118;8.642;2023-02-28T14:02:01;8.95;;;6.22;;
69047;SDS011;56119;50.118;8.642;2023-02-28T14:04:46;9.55;;;5.88;;
69047;SDS011;56119;50.118;8.642;2023-02-28T14:07:18;7.68;;;6.20;;
69047;SDS011;56119;50.118;8.642;2023-02-28T14:09:46;8.98;;;6.63;;
69047;SDS011;56119;50.118;8.642;2023-02-28T14:15:00;9.05;;;6.82;;
69047;SDS011;56119;50.118;8.642;2023-02-28T14:17:26;10.98;;;7.00;;
69047;SDS011;56119;50.118;8.642;2023-02-28T14:19:52;8.80;;;6.85;;
69047;SDS011;56119;50.118;8.642;2023-02-28T14:22:32;8.15;;;5.95;;
69047;SDS011;56119;50.118;8.642;2023-02-28T14:25:08;10.13;;;7.10;;
69047;SDS011;56119;50.118;8.642;2023-02-28T14:38:00;8.65;;;6.57;;
69047;SDS011;56119;50.118;8.642;2023-02-28T14:40:35;8.82;;;6.93;;
69047;SDS011;56119;50.118;8.642;2023-02-28T14:43:04;10.50;;;6.45;;
69047;SDS011;56119;50.118;8.642;2023-02-28T14:45:35;9.38;;;6.93;;
69047;SDS011;56119;50.118;8.642;2023-02-28T14:48:02;10.05;;;6.53;;
69047;SDS011;56119;50.118;8.642;2023-02-28T14:50:31;9.35;;;7.07;;
69047;SDS011;56119;50.118;8.642;2023-02-28T14:52:57;9.35;;;6.78;;
69047;SDS011;56119;50.118;8.642;2023-02-28T14:55:31;10.57;;;7.15;;
69047;SDS011;56119;50.118;8.642;2023-02-28T14:57:58;10.20;;;7.00;;
69047;SDS011;56119;50.118;8.642;2023-02-28T15:00:29;8.20;;;6.53;;
69047;SDS011;56119;50.118;8.642;2023-02-28T15:02:56;9.68;;;7.03;;
69047;SDS011;56119;50.118;8.642;2023-02-28T15:05:26;7.70;;;6.82;;
69047;SDS011;56119;50.118;8.642;2023-02-28T15:08:15;7.65;;;6.45;;
69047;SDS011;56119;50.118;8.642;2023-02-28T15:10:50;10.30;;;6.90;;
69047;SDS011;56119;50.118;8.642;2023-02-28T15:13:17;9.98;;;7.05;;
69047;SDS011;56119;50.118;8.642;2023-02-28T15:15:58;9.18;;;7.00;;
69047;SDS011;56119;50.118;8.642;2023-02-28T15:18:27;9.65;;;6.90;;
69047;SDS011;56119;50.118;8.642;2023-02-28T15:20:56;9.88;;;6.80;;
69047;SDS011;56119;50.118;8.642;2023-02-28T15:23:23;8.55;;;7.18;;
69047;SDS011;56119;50.118;8.642;2023-02-28T15:25:49;7.72;;;6.30;;
69047;SDS011;56119;50.118;8.642;2023-02-28T15:28:18;9.23;;;6.57;;
69047;SDS011;56119;50.118;8.642;2023-02-28T15:30:52;8.27;;;6.25;;
69047;SDS011;56119;50.118;8.642;2023-02-28T15:33:20;9.15;;;6.80;;
69047;SDS011;56119;50.118;8.642;2023-02-28T15:35:46;10.45;;;7.07;;
69047;SDS011;56119;50.118;8.642;2023-02-28T15:40:52;8.48;;;6.45;;
69047;SDS011;56119;50.118;8.642;2023-02-28T15:50:54;9.05;;;7.00;;
69047;SDS011;56119;50.118;8.642;2023-02-28T15:53:21;8.35;;;6.20;;
69047;SDS011;56119;50.118;8.642;2023-02-28T15:55:52;8.98;;;6.30;;
69047;SDS011;56119;50.118;8.642;2023-02-28T15:58:18;9.07;;;6.40;;
69047;SDS011;56119;50.118;8.642;2023-02-28T16:00:45;9.57;;;6.88;;
69047;SDS011;56119;50.118;8.642;2023-02-28T16:03:25;8.57;;;6.15;;
69047;SDS011;56119;50.118;8.642;2023-02-28T16:08:44;8.95;;;6.68;;
69047;SDS011;56119;50.118;8.642;2023-02-28T16:11:10;9.48;;;7.35;;
69047;SDS011;56119;50.118;8.642;2023-02-28T16:13:36;10.07;;;7.28;;
69047;SDS011;56119;50.118;8.642;2023-02-28T16:16:03;10.18;;;6.97;;
69047;SDS011;56119;50.118;8.642;2023-02-28T16:18:29;11.88;;;7.40;;
69047;SDS011;56119;50.118;8.642;2023-02-28T16:20:55;10.68;;;7.75;;
69047;SDS011;56119;50.118;8.642;2023-02-28T16:23:21;9.52;;;6.95;;
69047;SDS011;56119;50.118;8.642;2023-02-28T16:25:47;10.80;;;6.80;;
69047;SDS011;56119;50.118;8.642;2023-02-28T16:28:20;9.43;;;7.00;;
69047;SDS011;56119;50.118;8.642;2023-02-28T16:30:50;10.15;;;7.15;;
69047;SDS011;56119;50.118;8.642;2023-02-28T16:33:17;13.75;;;8.23;;
69047;SDS011;56119;50.118;8.642;2023-02-28T16:35:43;11.18;;;7.47;;
69047;SDS011;56119;50.118;8.642;2023-02-28T16:38:09;9.48;;;7.00;;
69047;SDS011;56119;50.118;8.642;2023-02-28T16:40:35;10.30;;;7.20;;